M/T Goviken — 9HA2718 — position and weather

sailwx.info

Track history (hours):
 
Tides and Currents Weather Stations Pressure Air Temp Water Temp Dewpoint Dewpoint Depression Visibility Wind Speed Wind Dir Waves Ship Positions

M/T Goviken

Last reported at 2017-Feb-20 16:33 UTC. Time now 2017-Feb-21 01:18 UTC.
Position N 27°58' W 015°22'.

Length 88 m; draft 6.3 m.

Type: Ship (hazmat cat C). MMSI: 215389000.

Date/timePositionNaut miles runAvg speedWind from/ knotsBaromVisibWave heightAir tempDewpointWater temp
2017-Feb-20 16:33N 27°58' W 015°22'1 1.4
2017-Feb-20 15:33N 27°58' W 015°21'10 9.6
2017-Feb-20 14:33N 28°08' W 015°23'1 1.2
2017-Feb-20 13:23N 28°09' W 015°24'0 0.0
2017-Feb-20 12:23N 28°09' W 015°24'0 0.0
2017-Feb-20 11:26N 28°09' W 015°24'0 0.0
2017-Feb-20 10:26N 28°09' W 015°24'  
2017-Feb-16 22:25N 37°58' W 010°39'2111.6
2017-Feb-16 20:34N 38°20' W 010°37'2311.4
2017-Feb-16 18:32N 38°42' W 010°34'1110.9
2017-Feb-16 17:33N 38°53' W 010°34'1111.0
2017-Feb-16 16:33N 39°04' W 010°33'1111.2
2017-Feb-16 15:34N 39°15' W 010°32'1211.4
2017-Feb-16 14:33N 39°27' W 010°30'  
2017-Feb-14 06:33N 48°54' W 005°45'9710.8
2017-Feb-13 21:33N 49°44' W 003°37'10 9.6
2017-Feb-13 20:33N 49°48' W 003°24'9 9.2
2017-Feb-13 19:33N 49°53' W 003°12'10 9.7
2017-Feb-13 18:34N 49°58' W 002°59'10211.3
2017-Feb-13 09:33N 50°26' W 000°26'9 8.9
2017-Feb-13 08:33N 50°29' W 000°13'1110.6
2017-Feb-13 07:30N 50°31' E 000°05'1112.1
2017-Feb-13 06:33N 50°34' E 000°22'1212.5
2017-Feb-13 05:33N 50°39' E 000°40'1312.4
2017-Feb-13 04:29N 50°47' E 000°56'1111.5
2017-Feb-13 03:32N 50°54' E 001°10'10 9.9
2017-Feb-13 02:33N 51°01' E 001°21'9 8.7
2017-Feb-13 01:33N 51°06' E 001°32'9 9.0
2017-Feb-13 00:33N 51°12' E 001°43'1110.6
2017-Feb-12 23:33N 51°20' E 001°54'9 9.3
2017-Feb-12 22:33N 51°23' E 002°08'1111.4
2017-Feb-12 21:33N 51°22' E 002°27'1211.6
2017-Feb-12 20:33N 51°22' E 002°45'1312.7
2017-Feb-12 19:33N 51°24' E 003°05'1414.3
2017-Feb-12 18:33N 51°25' E 003°28'1313.1
2017-Feb-12 17:33N 51°21' E 003°48'9 9.3
2017-Feb-12 16:33N 51°23' E 004°02'9 9.5
2017-Feb-12 15:33N 51°20' E 004°16'4 3.9
2017-Feb-12 14:33N 51°16' E 004°17'1 0.9
2017-Feb-12 13:32N 51°16' E 004°15'0 0.0
2017-Feb-12 12:23N 51°16' E 004°15'0 0.0
2017-Feb-12 10:29N 51°16' E 004°15'0 0.0
2017-Feb-12 09:29N 51°16' E 004°15'0 0.0
2017-Feb-12 08:29N 51°16' E 004°15'0 0.0
2017-Feb-12 07:29N 51°16' E 004°15'0 0.0
2017-Feb-12 06:29N 51°16' E 004°15'0 0.0
2017-Feb-12 05:32N 51°16' E 004°15'0 0.0
2017-Feb-12 04:29N 51°16' E 004°15'0 0.0
2017-Feb-12 03:29N 51°16' E 004°15'0 0.0
2017-Feb-12 02:29N 51°16' E 004°15'0 0.0
2017-Feb-12 01:32N 51°16' E 004°15'0 0.0
2017-Feb-11 22:05N 51°16' E 004°15'0 0.0
2017-Feb-11 21:23N 51°16' E 004°15'0 0.0
2017-Feb-11 20:26N 51°16' E 004°15'0 0.0
2017-Feb-11 18:29N 51°16' E 004°15'0 0.0
2017-Feb-11 16:29N 51°16' E 004°15'0 0.0
2017-Feb-11 15:23N 51°16' E 004°15'1 1.2
2017-Feb-11 14:33N 51°17' E 004°15'0 0.1
2017-Feb-11 13:33N 51°17' E 004°15'3 3.4
2017-Feb-11 12:33N 51°20' E 004°16'9 9.2
2017-Feb-11 11:33N 51°23' E 004°02'9 8.9
2017-Feb-11 10:33N 51°21' E 003°49'1010.3
2017-Feb-11 09:34N 51°25' E 003°34'6 6.0
2017-Feb-11 08:34N 51°24' E 003°24'9 8.7
2017-Feb-11 07:34N 51°24' E 003°10'10 9.9
2017-Feb-11 06:34N 51°22' E 002°55'10 9.6
2017-Feb-11 05:34N 51°22' E 002°40'4 3.9
2017-Feb-11 04:33N 51°22' E 002°34'2 2.2
2017-Feb-11 03:34N 51°23' E 002°37'3 2.6
2017-Feb-11 02:31N 51°20' E 002°35'0 0.0
2017-Feb-11 01:31N 51°20' E 002°35'0 0.0
2017-Feb-11 00:31N 51°20' E 002°35'0 0.0
2017-Feb-10 23:31N 51°20' E 002°35'0 0.1
2017-Feb-10 22:31N 51°20' E 002°35'0 0.0
2017-Feb-10 21:31N 51°20' E 002°35'0 0.0
2017-Feb-10 20:31N 51°20' E 002°35'0 0.0
2017-Feb-10 19:31N 51°20' E 002°35'0 0.0
2017-Feb-10 18:31N 51°20' E 002°35'0 0.0
2017-Feb-10 17:31N 51°20' E 002°35'  
Track history (hours):
 
Tides and Currents Weather Stations Pressure Air Temp Water Temp Dewpoint Dewpoint Depression Visibility Wind Speed Wind Dir Waves Ship Positions

M/T Goviken

Last reported at 2017-Feb-20 16:33 UTC. Time now 2017-Feb-21 01:18 UTC.
Position N 27°58' W 015°22'.

Length 88 m; draft 6.3 m.

Type: Ship (hazmat cat C). MMSI: 215389000.

Date/timePositionNaut miles runAvg speedWind from/ knotsBaromVisibWave heightAir tempDewpointWater temp
2017-Feb-20 16:33N 27°58' W 015°22'1 1.4
2017-Feb-20 15:33N 27°58' W 015°21'10 9.6
2017-Feb-20 14:33N 28°08' W 015°23'1 1.2
2017-Feb-20 13:23N 28°09' W 015°24'0 0.0
2017-Feb-20 12:23N 28°09' W 015°24'0 0.0
2017-Feb-20 11:26N 28°09' W 015°24'0 0.0
2017-Feb-20 10:26N 28°09' W 015°24'  
2017-Feb-16 22:25N 37°58' W 010°39'2111.6
2017-Feb-16 20:34N 38°20' W 010°37'2311.4
2017-Feb-16 18:32N 38°42' W 010°34'1110.9
2017-Feb-16 17:33N 38°53' W 010°34'1111.0
2017-Feb-16 16:33N 39°04' W 010°33'1111.2
2017-Feb-16 15:34N 39°15' W 010°32'1211.4
2017-Feb-16 14:33N 39°27' W 010°30'  
2017-Feb-14 06:33N 48°54' W 005°45'9710.8
2017-Feb-13 21:33N 49°44' W 003°37'10 9.6
2017-Feb-13 20:33N 49°48' W 003°24'9 9.2
2017-Feb-13 19:33N 49°53' W 003°12'10 9.7
2017-Feb-13 18:34N 49°58' W 002°59'10211.3
2017-Feb-13 09:33N 50°26' W 000°26'9 8.9
2017-Feb-13 08:33N 50°29' W 000°13'1110.6
2017-Feb-13 07:30N 50°31' E 000°05'1112.1
2017-Feb-13 06:33N 50°34' E 000°22'1212.5
2017-Feb-13 05:33N 50°39' E 000°40'1312.4
2017-Feb-13 04:29N 50°47' E 000°56'1111.5
2017-Feb-13 03:32N 50°54' E 001°10'10 9.9
2017-Feb-13 02:33N 51°01' E 001°21'9 8.7
2017-Feb-13 01:33N 51°06' E 001°32'9 9.0
2017-Feb-13 00:33N 51°12' E 001°43'1110.6
2017-Feb-12 23:33N 51°20' E 001°54'9 9.3
2017-Feb-12 22:33N 51°23' E 002°08'1111.4
2017-Feb-12 21:33N 51°22' E 002°27'1211.6
2017-Feb-12 20:33N 51°22' E 002°45'1312.7
2017-Feb-12 19:33N 51°24' E 003°05'1414.3
2017-Feb-12 18:33N 51°25' E 003°28'1313.1
2017-Feb-12 17:33N 51°21' E 003°48'9 9.3
2017-Feb-12 16:33N 51°23' E 004°02'9 9.5
2017-Feb-12 15:33N 51°20' E 004°16'4 3.9
2017-Feb-12 14:33N 51°16' E 004°17'1 0.9
2017-Feb-12 13:32N 51°16' E 004°15'0 0.0
2017-Feb-12 12:23N 51°16' E 004°15'0 0.0
2017-Feb-12 10:29N 51°16' E 004°15'0 0.0
2017-Feb-12 09:29N 51°16' E 004°15'0 0.0
2017-Feb-12 08:29N 51°16' E 004°15'0 0.0
2017-Feb-12 07:29N 51°16' E 004°15'0 0.0
2017-Feb-12 06:29N 51°16' E 004°15'0 0.0
2017-Feb-12 05:32N 51°16' E 004°15'0 0.0
2017-Feb-12 04:29N 51°16' E 004°15'0 0.0
2017-Feb-12 03:29N 51°16' E 004°15'0 0.0
2017-Feb-12 02:29N 51°16' E 004°15'0 0.0
2017-Feb-12 01:32N 51°16' E 004°15'0 0.0
2017-Feb-11 22:05N 51°16' E 004°15'0 0.0
2017-Feb-11 21:23N 51°16' E 004°15'0 0.0
2017-Feb-11 20:26N 51°16' E 004°15'0 0.0
2017-Feb-11 18:29N 51°16' E 004°15'0 0.0
2017-Feb-11 16:29N 51°16' E 004°15'0 0.0
2017-Feb-11 15:23N 51°16' E 004°15'1 1.2
2017-Feb-11 14:33N 51°17' E 004°15'0 0.1
2017-Feb-11 13:33N 51°17' E 004°15'3 3.4
2017-Feb-11 12:33N 51°20' E 004°16'9 9.2
2017-Feb-11 11:33N 51°23' E 004°02'9 8.9
2017-Feb-11 10:33N 51°21' E 003°49'1010.3
2017-Feb-11 09:34N 51°25' E 003°34'6 6.0
2017-Feb-11 08:34N 51°24' E 003°24'9 8.7
2017-Feb-11 07:34N 51°24' E 003°10'10 9.9
2017-Feb-11 06:34N 51°22' E 002°55'10 9.6
2017-Feb-11 05:34N 51°22' E 002°40'4 3.9
2017-Feb-11 04:33N 51°22' E 002°34'2 2.2
2017-Feb-11 03:34N 51°23' E 002°37'3 2.6
2017-Feb-11 02:31N 51°20' E 002°35'0 0.0
2017-Feb-11 01:31N 51°20' E 002°35'0 0.0
2017-Feb-11 00:31N 51°20' E 002°35'0 0.0
2017-Feb-10 23:31N 51°20' E 002°35'0 0.1
2017-Feb-10 22:31N 51°20' E 002°35'0 0.0
2017-Feb-10 21:31N 51°20' E 002°35'0 0.0
2017-Feb-10 20:31N 51°20' E 002°35'0 0.0
2017-Feb-10 19:31N 51°20' E 002°35'0 0.0
2017-Feb-10 18:31N 51°20' E 002°35'0 0.0
2017-Feb-10 17:31N 51°20' E 002°35'  

Dump ship's entire track history